Time;durP1;ratioP1;P1;durP2;ratioP2;P2;SDS_P1;SDS_P2;PMS_P1;PMS_P2;Temp;Humidity;BMP_temperature;BMP_pressure;BME280_temperature;BME280_humidity;BME280_pressure;Samples;Min_cycle;Max_cycle;Signal;HPM_P1;HPM_P2
2022/07/29 00:00:37;;;;;;;6.18;5.55;;;;;;;;;;4230437;28;20043;-82
2022/07/29 00:02:38;;;;;;;5.22;4.75;;;;;;;;;;4230334;28;20039;-77
2022/07/29 00:04:42;;;;;;;5.07;4.65;;;;;;;;;;4230699;28;20049;-76
2022/07/29 00:06:43;;;;;;;5.55;5.05;;;;;;;;;;4230156;28;20031;-77
2022/07/29 00:08:53;;;;;;;5.60;4.80;;;;;;;;;;4225210;28;20093;-77
2022/07/29 00:10:57;;;;;;;5.22;4.72;;;;;;;;;;4214380;28;20451;-75
2022/07/29 00:12:57;;;;;;;5.25;4.80;;;;;;;;;;4213972;28;20032;-76
2022/07/29 00:14:58;;;;;;;5.40;4.90;;;;;;;;;;4213983;28;20075;-77
2022/07/29 00:16:59;;;;;;;5.35;4.88;;;;;;;;;;4214479;28;20031;-78
2022/07/29 00:19:00;;;;;;;5.88;5.38;;;;;;;;;;4214288;28;20021;-78
2022/07/29 00:21:01;;;;;;;6.22;5.20;;;;;;;;;;4227207;28;20378;-78
2022/07/29 00:23:02;;;;;;;5.00;4.50;;;;;;;;;;4218746;28;20028;-78
2022/07/29 00:25:03;;;;;;;5.10;4.60;;;;;;;;;;4213110;28;20106;-78
2022/07/29 00:27:04;;;;;;;5.13;4.60;;;;;;;;;;4230008;28;20011;-79
2022/07/29 00:29:05;;;;;;;5.35;4.85;;;;;;;;;;4221125;28;20048;-79
2022/07/29 00:31:27;;;;;;;5.30;4.80;;;;;;;;;;4214964;28;20016;-80
2022/07/29 00:33:27;;;;;;;5.22;4.72;;;;;;;;;;4217919;28;20044;-80
2022/07/29 00:35:46;;;;;;;5.10;4.63;;;;;;;;;;4214129;28;20122;-81
2022/07/29 00:37:46;;;;;;;5.38;4.88;;;;;;;;;;4212689;28;20112;-80
2022/07/29 00:39:47;;;;;;;5.43;4.93;;;;;;;;;;4213755;28;20020;-78
2022/07/29 00:41:48;;;;;;;6.03;5.20;;;;;;;;;;4214027;28;20074;-80
2022/07/29 00:43:49;;;;;;;5.15;4.65;;;;;;;;;;4214441;28;20027;-79
2022/07/29 00:45:50;;;;;;;5.28;4.78;;;;;;;;;;4212639;28;20028;-78
2022/07/29 00:47:51;;;;;;;6.25;4.90;;;;;;;;;;4214151;28;20031;-79
2022/07/29 00:49:52;;;;;;;5.57;5.07;;;;;;;;;;4213950;28;20051;-79
2022/07/29 00:51:53;;;;;;;6.50;4.57;;;;;;;;;;4223042;28;20060;-81
2022/07/29 00:53:54;;;;;;;5.60;5.10;;;;;;;;;;4215364;28;20414;-81
2022/07/29 00:55:55;;;;;;;6.50;5.00;;;;;;;;;;4213059;28;20063;-79
2022/07/29 00:57:56;;;;;;;5.35;4.60;;;;;;;;;;4211524;28;20120;-78
2022/07/29 00:59:57;;;;;;;5.40;4.82;;;;;;;;;;4214084;28;20020;-78
2022/07/29 01:02:01;;;;;;;8.00;4.88;;;;;;;;;;4214273;28;20075;-79
2022/07/29 01:04:02;;;;;;;5.20;4.63;;;;;;;;;;4212812;28;20023;-78
2022/07/29 01:06:03;;;;;;;6.80;5.10;;;;;;;;;;4213190;28;20040;-80
2022/07/29 01:08:04;;;;;;;5.60;4.63;;;;;;;;;;4211934;28;20048;-78
2022/07/29 01:10:10;;;;;;;5.05;4.55;;;;;;;;;;4213812;28;20417;-79
2022/07/29 01:12:12;;;;;;;5.28;4.78;;;;;;;;;;4214067;28;20028;-78
2022/07/29 01:14:14;;;;;;;5.35;4.78;;;;;;;;;;4207370;28;20078;-79
2022/07/29 01:16:20;;;;;;;5.40;4.88;;;;;;;;;;4207118;28;20018;-78
2022/07/29 01:18:30;;;;;;;4.43;4.03;;;;;;;;;;4224140;28;20024;-78
2022/07/29 01:20:49;;;;;;;5.45;4.95;;;;;;;;;;4216265;28;20116;-78
2022/07/29 01:22:50;;;;;;;5.70;5.10;;;;;;;;;;4218360;28;20096;-79
2022/07/29 01:25:00;;;;;;;5.30;4.50;;;;;;;;;;4220089;28;20565;-78
2022/07/29 01:27:12;;;;;;;5.20;4.70;;;;;;;;;;4216902;28;20373;-77
2022/07/29 01:29:26;;;;;;;5.63;5.10;;;;;;;;;;4214563;28;20671;-78
2022/07/29 01:31:47;;;;;;;6.13;4.70;;;;;;;;;;4216686;28;20078;-78
2022/07/29 01:33:56;;;;;;;5.93;4.80;;;;;;;;;;4216124;28;20035;-77
2022/07/29 01:35:58;;;;;;;5.40;4.75;;;;;;;;;;4216813;28;20032;-79
2022/07/29 01:38:07;;;;;;;4.97;4.47;;;;;;;;;;4215655;28;20036;-78
2022/07/29 01:40:11;;;;;;;6.18;4.55;;;;;;;;;;4215554;28;20086;-77
2022/07/29 01:42:18;;;;;;;5.55;4.88;;;;;;;;;;4216383;28;20028;-82
2022/07/29 01:44:22;;;;;;;6.65;4.50;;;;;;;;;;4215852;28;20028;-79
2022/07/29 01:46:34;;;;;;;6.10;4.78;;;;;;;;;;4226227;28;20089;-78
2022/07/29 01:48:40;;;;;;;6.25;4.72;;;;;;;;;;4216625;28;20441;-78
2022/07/29 01:50:47;;;;;;;5.05;4.50;;;;;;;;;;4216629;28;20357;-80
2022/07/29 01:52:52;;;;;;;5.13;4.45;;;;;;;;;;4216789;28;20089;-77
2022/07/29 01:54:55;;;;;;;5.25;4.75;;;;;;;;;;4220672;28;20454;-80
2022/07/29 01:56:57;;;;;;;4.57;4.18;;;;;;;;;;4222737;28;20081;-80
2022/07/29 01:58:59;;;;;;;4.93;4.50;;;;;;;;;;4214470;28;20548;-80
2022/07/29 02:01:04;;;;;;;5.80;4.68;;;;;;;;;;4216054;28;20089;-80
2022/07/29 02:03:09;;;;;;;4.63;4.20;;;;;;;;;;4209692;28;20052;-80
2022/07/29 02:05:12;;;;;;;4.93;4.30;;;;;;;;;;4211144;28;20032;-81
2022/07/29 02:07:15;;;;;;;5.85;5.03;;;;;;;;;;4216348;28;20028;-84
2022/07/29 02:09:17;;;;;;;5.75;4.88;;;;;;;;;;4215911;28;20525;-79
2022/07/29 02:11:18;;;;;;;5.85;5.10;;;;;;;;;;4215682;28;20113;-77
2022/07/29 02:13:20;;;;;;;5.45;4.78;;;;;;;;;;4216335;28;20028;-77
2022/07/29 02:15:21;;;;;;;5.40;4.45;;;;;;;;;;4216197;28;20471;-78
2022/07/29 02:17:27;;;;;;;6.00;4.90;;;;;;;;;;4215473;28;20040;-78
2022/07/29 02:19:29;;;;;;;4.78;4.25;;;;;;;;;;4215935;28;20028;-76
2022/07/29 02:21:34;;;;;;;6.13;4.85;;;;;;;;;;4217568;28;20105;-78
2022/07/29 02:23:35;;;;;;;5.93;4.68;;;;;;;;;;4213324;28;20040;-78
2022/07/29 02:25:40;;;;;;;4.75;4.05;;;;;;;;;;4212320;28;20089;-77
2022/07/29 02:27:42;;;;;;;4.43;4.03;;;;;;;;;;4209993;28;20021;-80
2022/07/29 02:29:45;;;;;;;5.63;4.38;;;;;;;;;;4203234;28;20708;-78
2022/07/29 02:31:49;;;;;;;4.50;4.10;;;;;;;;;;4216281;28;20024;-78
2022/07/29 02:33:51;;;;;;;5.38;4.60;;;;;;;;;;4198750;28;20036;-78
2022/07/29 02:35:52;;;;;;;4.53;4.13;;;;;;;;;;4198487;28;20468;-78
2022/07/29 02:40:14;;;;;;;4.55;3.72;;;;;;;;;;4198736;28;20042;-76
2022/07/29 02:42:16;;;;;;;6.50;4.20;;;;;;;;;;4198758;28;20526;-79
2022/07/29 02:44:19;;;;;;;6.53;3.75;;;;;;;;;;4205444;28;20020;-78
2022/07/29 02:46:26;;;;;;;4.75;4.10;;;;;;;;;;4215058;28;20036;-79
2022/07/29 02:48:37;;;;;;;4.72;4.32;;;;;;;;;;4214986;28;20051;-78
2022/07/29 02:50:43;;;;;;;5.60;3.95;;;;;;;;;;4214755;28;20036;-77
2022/07/29 02:52:52;;;;;;;4.45;4.05;;;;;;;;;;4215029;28;20032;-78
2022/07/29 02:55:11;;;;;;;4.18;3.78;;;;;;;;;;4215463;28;20020;-79
2022/07/29 02:57:27;;;;;;;7.00;4.57;;;;;;;;;;4216400;28;20020;-78
2022/07/29 02:59:29;;;;;;;4.95;4.15;;;;;;;;;;4214744;28;20048;-78
2022/07/29 03:01:32;;;;;;;4.03;3.63;;;;;;;;;;4214342;28;20333;-77
2022/07/29 03:03:38;;;;;;;8.23;3.90;;;;;;;;;;4215521;28;20016;-78
2022/07/29 03:05:39;;;;;;;7.93;4.47;;;;;;;;;;4215566;28;20085;-78
2022/07/29 03:07:41;;;;;;;4.50;4.05;;;;;;;;;;4215259;28;20069;-78
2022/07/29 03:09:42;;;;;;;4.65;4.20;;;;;;;;;;4215269;28;20028;-78
2022/07/29 03:11:44;;;;;;;4.45;3.72;;;;;;;;;;4220351;28;20126;-79
2022/07/29 03:13:45;;;;;;;5.30;4.05;;;;;;;;;;4232205;28;20084;-78
2022/07/29 03:15:46;;;;;;;7.15;4.47;;;;;;;;;;4214707;28;20033;-78
2022/07/29 03:17:47;;;;;;;7.03;4.22;;;;;;;;;;4216112;28;20028;-80
2022/07/29 03:19:50;;;;;;;6.28;4.35;;;;;;;;;;4214171;28;20421;-76
2022/07/29 03:21:51;;;;;;;5.53;4.93;;;;;;;;;;4215308;28;20471;-82
2022/07/29 03:23:52;;;;;;;6.97;4.20;;;;;;;;;;4215158;28;20061;-79
2022/07/29 03:25:54;;;;;;;6.60;4.07;;;;;;;;;;4214465;28;20032;-79
2022/07/29 03:27:56;;;;;;;4.80;3.95;;;;;;;;;;4213438;28;20043;-78
2022/07/29 03:29:57;;;;;;;5.38;4.18;;;;;;;;;;4214262;28;20032;-80
2022/07/29 03:31:57;;;;;;;4.40;3.90;;;;;;;;;;4216072;28;20055;-81
2022/07/29 03:33:58;;;;;;;4.32;3.85;;;;;;;;;;4215442;28;20016;-84
2022/07/29 03:36:01;;;;;;;7.03;3.63;;;;;;;;;;4215412;28;20059;-88
2022/07/29 03:38:02;;;;;;;5.35;3.92;;;;;;;;;;4215004;28;20028;-81
2022/07/29 03:40:07;;;;;;;4.75;3.97;;;;;;;;;;4214816;28;20179;-78
2022/07/29 03:42:10;;;;;;;5.72;3.55;;;;;;;;;;4214855;28;20097;-79
2022/07/29 03:44:12;;;;;;;5.32;3.97;;;;;;;;;;4213309;28;20032;-81
2022/07/29 03:46:13;;;;;;;5.05;3.60;;;;;;;;;;4214959;28;20099;-81
2022/07/29 03:48:19;;;;;;;4.90;3.83;;;;;;;;;;4214069;28;20044;-77
2022/07/29 03:50:21;;;;;;;5.10;4.05;;;;;;;;;;4214028;28;20027;-77
2022/07/29 03:52:22;;;;;;;4.72;3.78;;;;;;;;;;4214769;28;20340;-77
2022/07/29 03:54:23;;;;;;;3.95;3.55;;;;;;;;;;4214823;28;20024;-78
2022/07/29 03:56:24;;;;;;;4.05;3.53;;;;;;;;;;4214540;28;20455;-77
2022/07/29 03:58:26;;;;;;;4.20;3.80;;;;;;;;;;4213957;28;20028;-77
2022/07/29 04:00:27;;;;;;;4.35;3.95;;;;;;;;;;4214309;28;20080;-75
2022/07/29 04:02:28;;;;;;;5.30;3.70;;;;;;;;;;4214026;28;20085;-77
2022/07/29 04:04:34;;;;;;;4.57;3.83;;;;;;;;;;4214500;28;20483;-79
2022/07/29 04:06:39;;;;;;;5.20;3.97;;;;;;;;;;4213141;28;20032;-86
2022/07/29 04:08:40;;;;;;;3.85;3.33;;;;;;;;;;4215802;28;20048;-82
2022/07/29 04:10:41;;;;;;;4.07;3.67;;;;;;;;;;4215325;28;20056;-80
2022/07/29 04:12:42;;;;;;;3.58;3.28;;;;;;;;;;4216577;28;20067;-79
2022/07/29 04:14:46;;;;;;;3.65;3.35;;;;;;;;;;4214929;28;20107;-80
2022/07/29 04:16:47;;;;;;;4.38;3.53;;;;;;;;;;4214874;28;20024;-81
2022/07/29 04:18:48;;;;;;;4.03;3.40;;;;;;;;;;4214968;28;20024;-79
2022/07/29 04:21:00;;;;;;;5.65;3.80;;;;;;;;;;4211931;28;20055;-85
2022/07/29 04:23:01;;;;;;;3.85;3.38;;;;;;;;;;4216360;28;20028;-85
2022/07/29 04:25:02;;;;;;;3.97;3.65;;;;;;;;;;4216961;28;20491;-79
2022/07/29 04:27:03;;;;;;;4.60;3.63;;;;;;;;;;4214360;28;20119;-86
2022/07/29 04:29:04;;;;;;;5.18;3.80;;;;;;;;;;4214683;28;20040;-87
2022/07/29 04:31:05;;;;;;;4.82;3.38;;;;;;;;;;4214816;28;20024;-82
2022/07/29 04:33:06;;;;;;;4.20;3.22;;;;;;;;;;4214356;28;20036;-88
2022/07/29 04:35:10;;;;;;;4.05;3.65;;;;;;;;;;4215020;28;20069;-84
2022/07/29 04:37:14;;;;;;;3.70;3.40;;;;;;;;;;4214872;28;20028;-82
2022/07/29 04:39:15;;;;;;;5.43;3.65;;;;;;;;;;4203775;28;20468;-82
2022/07/29 04:41:16;;;;;;;4.63;3.22;;;;;;;;;;4198155;28;20032;-83
2022/07/29 04:43:17;;;;;;;6.00;3.55;;;;;;;;;;4197862;28;20021;-82
2022/07/29 04:45:21;;;;;;;4.78;3.80;;;;;;;;;;4196494;28;20115;-86
2022/07/29 04:47:24;;;;;;;4.88;3.60;;;;;;;;;;4198363;28;20037;-82
2022/07/29 04:49:25;;;;;;;4.60;3.70;;;;;;;;;;4198253;28;20040;-82
2022/07/29 04:51:26;;;;;;;5.63;3.63;;;;;;;;;;4198848;28;20431;-81
2022/07/29 04:53:27;;;;;;;8.18;3.92;;;;;;;;;;4198657;28;20060;-79
2022/07/29 04:55:31;;;;;;;6.47;3.60;;;;;;;;;;4197451;28;20028;-76
2022/07/29 04:57:31;;;;;;;5.07;3.58;;;;;;;;;;4208945;28;20093;-76
2022/07/29 04:59:32;;;;;;;4.95;3.30;;;;;;;;;;4211928;28;20048;-76
2022/07/29 05:01:33;;;;;;;5.68;3.25;;;;;;;;;;4216950;28;20040;-76
2022/07/29 05:03:34;;;;;;;7.55;3.67;;;;;;;;;;4217021;28;20038;-77
2022/07/29 05:05:35;;;;;;;5.15;3.28;;;;;;;;;;4217780;28;20024;-77
2022/07/29 05:07:36;;;;;;;7.20;3.95;;;;;;;;;;4217570;28;20058;-76
2022/07/29 05:09:37;;;;;;;6.78;3.70;;;;;;;;;;4217228;28;20111;-77
2022/07/29 05:11:40;;;;;;;5.90;3.45;;;;;;;;;;4216024;28;20052;-78
2022/07/29 05:13:42;;;;;;;3.45;2.95;;;;;;;;;;4216485;28;20028;-79
2022/07/29 05:15:43;;;;;;;4.97;3.40;;;;;;;;;;4217412;28;20406;-76
2022/07/29 05:17:44;;;;;;;7.63;3.40;;;;;;;;;;4217173;28;20103;-76
2022/07/29 05:19:45;;;;;;;7.15;2.95;;;;;;;;;;4216319;28;20467;-79
2022/07/29 05:21:49;;;;;;;5.38;3.58;;;;;;;;;;4217365;28;20024;-78
2022/07/29 05:23:50;;;;;;;4.32;3.92;;;;;;;;;;4216697;28;20036;-79
2022/07/29 05:25:51;;;;;;;6.47;3.42;;;;;;;;;;4216598;28;20031;-78
2022/07/29 05:27:53;;;;;;;5.82;3.47;;;;;;;;;;4217408;28;20024;-80
2022/07/29 05:29:54;;;;;;;8.32;3.10;;;;;;;;;;4214074;28;20040;-82
2022/07/29 05:31:58;;;;;;;8.68;3.28;;;;;;;;;;4217216;28;20120;-80
2022/07/29 05:34:01;;;;;;;6.57;3.38;;;;;;;;;;4216072;28;20028;-80
2022/07/29 05:36:05;;;;;;;5.95;3.40;;;;;;;;;;4217209;28;20069;-80
2022/07/29 05:38:06;;;;;;;5.63;3.58;;;;;;;;;;4216775;28;20032;-80
2022/07/29 05:40:08;;;;;;;3.50;3.00;;;;;;;;;;4216684;28;20489;-80
2022/07/29 05:42:09;;;;;;;4.18;3.20;;;;;;;;;;4216988;28;20414;-80
2022/07/29 05:44:11;;;;;;;6.72;2.95;;;;;;;;;;4215576;28;20028;-80
2022/07/29 05:46:13;;;;;;;3.72;3.03;;;;;;;;;;4216406;28;20509;-81
2022/07/29 05:48:14;;;;;;;5.90;2.88;;;;;;;;;;4216929;28;20044;-81
2022/07/29 05:50:15;;;;;;;5.88;3.33;;;;;;;;;;4216818;28;20417;-81
2022/07/29 05:52:18;;;;;;;3.38;2.92;;;;;;;;;;4215527;28;20032;-81
2022/07/29 05:54:19;;;;;;;6.10;3.20;;;;;;;;;;4216592;28;20024;-81
2022/07/29 05:56:23;;;;;;;4.43;3.30;;;;;;;;;;4216295;28;20043;-80
2022/07/29 05:58:24;;;;;;;5.53;3.42;;;;;;;;;;4216264;28;20040;-81
2022/07/29 06:00:25;;;;;;;3.53;2.83;;;;;;;;;;4215270;28;20032;-80
2022/07/29 06:02:26;;;;;;;7.70;3.00;;;;;;;;;;4216677;28;20077;-79
2022/07/29 06:04:27;;;;;;;4.30;3.38;;;;;;;;;;4216413;28;20036;-82
2022/07/29 06:06:28;;;;;;;6.57;3.42;;;;;;;;;;4216357;28;20036;-83
2022/07/29 06:08:29;;;;;;;5.50;3.17;;;;;;;;;;4216312;28;20071;-82
2022/07/29 06:10:32;;;;;;;3.38;3.00;;;;;;;;;;4216429;28;20016;-82
2022/07/29 06:12:33;;;;;;;5.07;2.67;;;;;;;;;;4215581;28;20024;-82
2022/07/29 06:14:35;;;;;;;3.28;2.97;;;;;;;;;;4215299;28;20457;-82
2022/07/29 06:16:36;;;;;;;4.32;2.97;;;;;;;;;;4215437;28;20479;-82
2022/07/29 06:18:39;;;;;;;4.72;3.10;;;;;;;;;;4216506;28;20059;-82
2022/07/29 06:20:40;;;;;;;5.07;3.10;;;;;;;;;;4216062;28;20354;-81
2022/07/29 06:22:41;;;;;;;3.70;3.20;;;;;;;;;;4215910;28;20036;-79
2022/07/29 06:24:43;;;;;;;3.90;3.15;;;;;;;;;;4216299;28;20474;-81
2022/07/29 06:26:44;;;;;;;3.80;3.20;;;;;;;;;;4216292;28;20081;-81
2022/07/29 06:28:45;;;;;;;3.85;3.03;;;;;;;;;;4216192;28;20343;-81
2022/07/29 06:30:46;;;;;;;4.40;2.63;;;;;;;;;;4214638;28;20042;-81
2022/07/29 06:32:47;;;;;;;6.07;2.65;;;;;;;;;;4216056;28;20103;-79
2022/07/29 06:34:48;;;;;;;3.22;2.83;;;;;;;;;;4216172;28;20026;-81
2022/07/29 06:36:49;;;;;;;3.20;2.90;;;;;;;;;;4216095;28;20460;-80
2022/07/29 06:38:50;;;;;;;2.95;2.58;;;;;;;;;;4216128;28;20024;-80
2022/07/29 06:41:00;;;;;;;2.90;2.63;;;;;;;;;;4214029;28;20560;-80
2022/07/29 06:43:01;;;;;;;3.25;2.60;;;;;;;;;;4214706;28;20035;-76
2022/07/29 06:45:05;;;;;;;3.70;2.80;;;;;;;;;;4215415;28;20032;-79
2022/07/29 06:47:06;;;;;;;3.20;2.90;;;;;;;;;;4214257;28;20507;-80
2022/07/29 06:49:07;;;;;;;3.35;2.80;;;;;;;;;;4214371;28;20479;-80
2022/07/29 06:51:08;;;;;;;3.90;2.80;;;;;;;;;;4216018;28;20097;-80
2022/07/29 06:53:12;;;;;;;2.47;2.17;;;;;;;;;;4214239;28;20036;-80
2022/07/29 06:55:14;;;;;;;3.23;2.67;;;;;;;;;;4215788;28;20016;-78
2022/07/29 06:57:17;;;;;;;3.13;2.78;;;;;;;;;;4215748;28;20180;-78
2022/07/29 06:59:20;;;;;;;2.55;2.35;;;;;;;;;;4213601;28;20048;-78
2022/07/29 07:01:21;;;;;;;3.70;2.60;;;;;;;;;;4215350;28;20082;-79
2022/07/29 07:03:25;;;;;;;3.40;2.97;;;;;;;;;;4216055;28;20059;-78
2022/07/29 07:05:26;;;;;;;4.30;2.87;;;;;;;;;;4214429;28;20028;-81
2022/07/29 07:07:27;;;;;;;3.20;2.78;;;;;;;;;;4213718;28;20261;-82
2022/07/29 07:09:28;;;;;;;4.72;2.45;;;;;;;;;;4214580;28;20040;-78
2022/07/29 07:11:29;;;;;;;3.58;2.42;;;;;;;;;;4213693;28;20451;-77
2022/07/29 07:13:34;;;;;;;3.72;2.47;;;;;;;;;;4215490;28;20106;-77
2022/07/29 07:15:36;;;;;;;4.28;2.97;;;;;;;;;;4215324;28;20016;-80
2022/07/29 07:17:37;;;;;;;7.15;2.65;;;;;;;;;;4215473;28;20349;-79
2022/07/29 07:19:41;;;;;;;3.00;2.42;;;;;;;;;;4213754;28;20020;-79
2022/07/29 07:21:42;;;;;;;4.00;2.40;;;;;;;;;;4214852;28;20422;-80
2022/07/29 07:23:43;;;;;;;3.70;2.70;;;;;;;;;;4214603;28;20052;-77
2022/07/29 07:25:46;;;;;;;3.30;2.78;;;;;;;;;;4214758;28;20096;-78
2022/07/29 07:27:48;;;;;;;3.15;2.85;;;;;;;;;;4214646;28;20058;-78
2022/07/29 07:29:51;;;;;;;2.58;2.35;;;;;;;;;;4214710;28;20105;-77
2022/07/29 07:31:55;;;;;;;3.45;2.55;;;;;;;;;;4215044;28;20024;-76
2022/07/29 07:33:56;;;;;;;4.07;3.13;;;;;;;;;;4215143;28;20028;-78
2022/07/29 07:35:57;;;;;;;3.08;2.58;;;;;;;;;;4214497;28;20024;-79
2022/07/29 07:37:58;;;;;;;3.35;2.60;;;;;;;;;;4215067;28;20027;-77
2022/07/29 07:39:59;;;;;;;2.78;2.33;;;;;;;;;;4214590;28;20031;-79
2022/07/29 07:42:00;;;;;;;3.20;2.60;;;;;;;;;;4213227;28;20094;-79
2022/07/29 07:44:01;;;;;;;2.75;2.55;;;;;;;;;;4214960;28;20032;-75
2022/07/29 07:46:02;;;;;;;4.07;2.60;;;;;;;;;;4214288;28;20028;-77
2022/07/29 07:48:03;;;;;;;3.75;2.20;;;;;;;;;;4214856;28;20020;-77
2022/07/29 07:50:07;;;;;;;2.70;2.47;;;;;;;;;;4213407;28;20032;-78
2022/07/29 07:52:08;;;;;;;3.03;2.67;;;;;;;;;;4215159;28;20024;-79
2022/07/29 07:54:09;;;;;;;2.67;2.47;;;;;;;;;;4214594;28;20035;-79
2022/07/29 07:56:10;;;;;;;2.50;2.30;;;;;;;;;;4215140;28;20341;-79
2022/07/29 07:58:11;;;;;;;3.13;2.83;;;;;;;;;;4214178;28;20071;-81
2022/07/29 08:00:13;;;;;;;2.42;2.20;;;;;;;;;;4214102;28;20043;-79
2022/07/29 08:02:14;;;;;;;2.72;2.50;;;;;;;;;;4211792;28;20081;-79
2022/07/29 08:04:15;;;;;;;5.47;2.67;;;;;;;;;;4214752;28;20067;-79
2022/07/29 08:06:18;;;;;;;3.78;2.95;;;;;;;;;;4214315;28;20031;-79
2022/07/29 08:08:19;;;;;;;3.03;2.72;;;;;;;;;;4214291;28;20082;-79
2022/07/29 08:12:40;;;;;;;3.13;2.83;;;;;;;;;;4215899;28;20028;-79
2022/07/29 08:14:41;;;;;;;4.32;3.10;;;;;;;;;;4213142;28;20035;-80
2022/07/29 08:16:42;;;;;;;3.15;2.80;;;;;;;;;;4213976;28;20115;-80
2022/07/29 08:18:44;;;;;;;3.08;2.33;;;;;;;;;;4214393;28;20032;-80
2022/07/29 08:20:45;;;;;;;4.70;2.78;;;;;;;;;;4214761;28;20031;-80
2022/07/29 08:22:46;;;;;;;2.13;1.98;;;;;;;;;;4214634;28;20099;-80
2022/07/29 08:24:52;;;;;;;4.05;2.53;;;;;;;;;;4214901;28;20082;-80
2022/07/29 08:26:55;;;;;;;3.67;2.70;;;;;;;;;;4214644;28;20020;-79
2022/07/29 08:28:56;;;;;;;3.13;2.30;;;;;;;;;;4213529;28;20043;-79
2022/07/29 08:31:00;;;;;;;4.22;2.42;;;;;;;;;;4214436;28;20543;-79
2022/07/29 08:33:01;;;;;;;2.63;2.35;;;;;;;;;;4214114;28;20049;-78
2022/07/29 08:35:02;;;;;;;2.75;2.55;;;;;;;;;;4213585;28;20020;-78
2022/07/29 08:37:02;;;;;;;2.92;2.28;;;;;;;;;;4218073;28;20369;-73
2022/07/29 08:39:03;;;;;;;2.50;2.30;;;;;;;;;;4217363;28;20034;-79
2022/07/29 08:41:04;;;;;;;3.50;2.60;;;;;;;;;;4217978;28;20421;-79
2022/07/29 08:43:06;;;;;;;2.40;2.20;;;;;;;;;;4217994;28;20024;-80
2022/07/29 08:45:08;;;;;;;2.30;2.10;;;;;;;;;;4218191;28;20031;-80
2022/07/29 08:47:08;;;;;;;2.95;2.05;;;;;;;;;;4218070;28;20082;-79
2022/07/29 08:49:09;;;;;;;2.90;2.40;;;;;;;;;;4217261;28;20424;-81
2022/07/29 08:51:29;;;;;;;2.92;2.63;;;;;;;;;;4218041;28;20013;-80
2022/07/29 08:53:30;;;;;;;3.33;2.45;;;;;;;;;;4217494;28;20032;-79
2022/07/29 08:55:31;;;;;;;3.70;2.35;;;;;;;;;;4217839;28;20036;-80
2022/07/29 08:57:32;;;;;;;2.17;1.98;;;;;;;;;;4219173;28;20026;-80
2022/07/29 08:59:34;;;;;;;2.08;1.88;;;;;;;;;;4218146;28;20036;-86
2022/07/29 09:01:37;;;;;;;2.97;2.50;;;;;;;;;;4218565;28;20024;-84
2022/07/29 09:03:39;;;;;;;3.20;2.28;;;;;;;;;;4217706;28;20157;-81
2022/07/29 09:05:45;;;;;;;2.20;2.00;;;;;;;;;;4216352;28;20461;-81
2022/07/29 09:07:47;;;;;;;2.55;2.33;;;;;;;;;;4217581;28;20418;-81
2022/07/29 09:09:48;;;;;;;3.60;2.38;;;;;;;;;;4217240;28;20036;-80
2022/07/29 09:11:49;;;;;;;3.30;2.60;;;;;;;;;;4217862;28;20016;-81
2022/07/29 09:13:50;;;;;;;2.50;2.30;;;;;;;;;;4216384;28;20085;-80
2022/07/29 09:15:52;;;;;;;3.28;2.33;;;;;;;;;;4217008;28;20029;-83
2022/07/29 09:17:53;;;;;;;2.58;2.00;;;;;;;;;;4217733;28;20460;-82
2022/07/29 09:20:07;;;;;;;2.33;2.13;;;;;;;;;;4217076;28;20111;-85
2022/07/29 09:22:09;;;;;;;2.83;2.30;;;;;;;;;;4217491;28;20035;-83
2022/07/29 09:24:13;;;;;;;2.67;2.47;;;;;;;;;;4217807;28;20272;-83
2022/07/29 09:26:17;;;;;;;2.67;2.22;;;;;;;;;;4217917;28;20093;-83
2022/07/29 09:28:18;;;;;;;2.38;2.17;;;;;;;;;;4217313;28;20044;-82
2022/07/29 09:30:19;;;;;;;2.55;2.20;;;;;;;;;;4216802;28;20031;-80
2022/07/29 09:32:22;;;;;;;2.03;1.83;;;;;;;;;;4216616;28;20028;-80
2022/07/29 09:34:24;;;;;;;2.50;2.30;;;;;;;;;;4215285;28;20101;-81
2022/07/29 09:36:25;;;;;;;3.45;2.50;;;;;;;;;;4215823;28;20455;-79
2022/07/29 09:38:26;;;;;;;2.80;2.10;;;;;;;;;;4215233;28;20093;-78
2022/07/29 09:40:28;;;;;;;2.40;2.20;;;;;;;;;;4216496;28;20050;-77
2022/07/29 09:42:29;;;;;;;2.47;2.00;;;;;;;;;;4216899;28;20023;-77
2022/07/29 09:44:49;;;;;;;2.45;2.00;;;;;;;;;;4216224;28;20032;-77
2022/07/29 09:46:58;;;;;;;2.20;2.00;;;;;;;;;;4215483;28;20036;-78
2022/07/29 09:49:12;;;;;;;2.10;1.90;;;;;;;;;;4215869;28;20053;-78
2022/07/29 09:51:17;;;;;;;2.27;2.07;;;;;;;;;;4216207;28;20425;-78
2022/07/29 09:53:30;;;;;;;3.25;2.58;;;;;;;;;;4216699;28;20046;-78
2022/07/29 09:55:30;;;;;;;2.83;2.22;;;;;;;;;;4215741;28;20054;-86
2022/07/29 09:57:31;;;;;;;2.63;2.20;;;;;;;;;;4217578;28;20349;-86
2022/07/29 09:59:32;;;;;;;2.53;2.20;;;;;;;;;;4216239;28;20452;-81
2022/07/29 10:01:34;;;;;;;2.72;2.30;;;;;;;;;;4216685;28;20417;-82
2022/07/29 10:03:51;;;;;;;2.20;1.80;;;;;;;;;;4216222;28;20032;-82
2022/07/29 10:06:10;;;;;;;2.33;2.13;;;;;;;;;;4215622;28;20032;-82
2022/07/29 10:08:15;;;;;;;2.72;1.92;;;;;;;;;;4216713;28;20023;-81
2022/07/29 10:10:20;;;;;;;2.58;2.38;;;;;;;;;;4214457;28;20514;-81
2022/07/29 10:12:21;;;;;;;2.70;2.20;;;;;;;;;;4215043;28;20028;-83
2022/07/29 10:14:22;;;;;;;2.55;2.35;;;;;;;;;;4214809;28;20032;-79
2022/07/29 10:16:24;;;;;;;2.90;2.22;;;;;;;;;;4216451;28;20032;-80
2022/07/29 10:18:25;;;;;;;2.22;1.98;;;;;;;;;;4216612;28;20078;-80
2022/07/29 10:20:27;;;;;;;2.35;2.15;;;;;;;;;;4214471;28;20081;-81
2022/07/29 10:22:28;;;;;;;2.15;1.95;;;;;;;;;;4216053;28;20091;-79
2022/07/29 10:24:30;;;;;;;2.72;1.77;;;;;;;;;;4215898;28;20475;-80
2022/07/29 10:26:31;;;;;;;2.30;2.10;;;;;;;;;;4216693;28;20020;-81
2022/07/29 10:28:32;;;;;;;2.10;1.85;;;;;;;;;;4216365;28;20024;-80
2022/07/29 10:30:33;;;;;;;2.83;2.25;;;;;;;;;;4215985;28;20032;-79
2022/07/29 10:32:52;;;;;;;3.03;2.10;;;;;;;;;;4216044;28;20020;-79
2022/07/29 10:35:11;;;;;;;2.50;2.30;;;;;;;;;;4216234;28;20016;-79
2022/07/29 10:37:18;;;;;;;2.70;2.40;;;;;;;;;;4213296;28;20093;-79
2022/07/29 10:39:19;;;;;;;3.10;2.03;;;;;;;;;;4199105;28;20028;-79
2022/07/29 10:41:46;;;;;;;2.25;2.05;;;;;;;;;;4199290;28;20103;-79
2022/07/29 10:43:48;;;;;;;2.53;2.17;;;;;;;;;;4199179;28;20041;-82
2022/07/29 10:45:49;;;;;;;2.30;2.10;;;;;;;;;;4197682;28;20040;-82
2022/07/29 10:48:02;;;;;;;2.08;1.88;;;;;;;;;;4205469;28;20028;-82
2022/07/29 10:50:04;;;;;;;2.20;1.98;;;;;;;;;;4215547;28;20479;-85
2022/07/29 10:52:11;;;;;;;2.35;2.15;;;;;;;;;;4215688;28;20097;-71
2022/07/29 10:54:12;;;;;;;3.47;2.15;;;;;;;;;;4215565;28;20024;-71
2022/07/29 10:56:29;;;;;;;4.28;2.00;;;;;;;;;;4215352;28;20134;-70
2022/07/29 10:58:29;;;;;;;2.92;2.28;;;;;;;;;;4214953;28;20437;-70
2022/07/29 11:00:34;;;;;;;1.95;1.83;;;;;;;;;;4215024;28;20083;-69
2022/07/29 11:02:42;;;;;;;;;;;;;;;;;;4215062;28;20491;-70
2022/07/29 11:04:42;;;;;;;2.10;2.00;;;;;;;;;;4215059;28;19908;-70
2022/07/29 11:07:05;;;;;;;2.20;2.00;;;;;;;;;;4215365;28;20417;-70
2022/07/29 11:09:19;;;;;;;2.20;1.90;;;;;;;;;;4213640;28;20525;-70
2022/07/29 11:11:20;;;;;;;2.40;2.20;;;;;;;;;;4214643;28;20378;-69
2022/07/29 11:13:39;;;;;;;2.10;1.90;;;;;;;;;;4215323;28;20021;-69
2022/07/29 11:15:53;;;;;;;2.10;1.90;;;;;;;;;;4215206;28;20015;-71
2022/07/29 11:17:56;;;;;;;2.45;1.90;;;;;;;;;;4215299;28;20525;-71
2022/07/29 11:20:15;;;;;;;2.20;1.92;;;;;;;;;;4212648;28;20077;-71
2022/07/29 11:22:33;;;;;;;1.80;1.70;;;;;;;;;;4214685;28;20413;-71
2022/07/29 11:24:35;;;;;;;3.08;2.03;;;;;;;;;;4214758;28;20032;-71
2022/07/29 11:26:37;;;;;;;3.85;2.22;;;;;;;;;;4214680;28;20032;-71
2022/07/29 11:28:42;;;;;;;2.08;1.73;;;;;;;;;;4215094;28;20024;-71
2022/07/29 11:30:50;;;;;;;2.65;2.45;;;;;;;;;;4214091;28;20556;-70
2022/07/29 11:32:51;;;;;;;2.55;2.35;;;;;;;;;;4214885;28;20513;-71
2022/07/29 11:35:10;;;;;;;3.30;2.47;;;;;;;;;;4215007;28;20028;-72
2022/07/29 11:37:12;;;;;;;2.22;2.00;;;;;;;;;;4214870;28;20089;-70
2022/07/29 11:39:26;;;;;;;2.25;2.05;;;;;;;;;;4214302;28;20035;-71
2022/07/29 11:41:29;;;;;;;2.17;1.98;;;;;;;;;;4214385;28;20433;-70
2022/07/29 11:43:48;;;;;;;3.10;2.17;;;;;;;;;;4208844;28;20032;-70
2022/07/29 11:45:49;;;;;;;2.50;2.00;;;;;;;;;;4214240;28;20032;-70
2022/07/29 11:47:52;;;;;;;2.20;2.00;;;;;;;;;;4214683;28;20067;-71
2022/07/29 11:49:54;;;;;;;4.97;3.05;;;;;;;;;;4213796;28;20105;-71
2022/07/29 11:51:56;;;;;;;2.50;1.73;;;;;;;;;;4214298;28;20468;-70
2022/07/29 11:53:58;;;;;;;3.25;1.90;;;;;;;;;;4214704;28;20024;-71
2022/07/29 11:56:02;;;;;;;2.15;1.95;;;;;;;;;;4214411;28;20044;-72
2022/07/29 11:58:03;;;;;;;2.75;1.90;;;;;;;;;;4214764;28;20370;-71
2022/07/29 12:00:10;;;;;;;3.20;2.05;;;;;;;;;;4214186;28;20052;-71
2022/07/29 12:02:15;;;;;;;2.40;1.98;;;;;;;;;;4212886;28;20497;-70
2022/07/29 12:04:18;;;;;;;1.98;1.77;;;;;;;;;;4214170;28;20545;-71
2022/07/29 12:06:19;;;;;;;3.45;2.30;;;;;;;;;;4215440;28;20529;-73
2022/07/29 12:08:21;;;;;;;2.17;1.98;;;;;;;;;;4214474;28;20026;-72
2022/07/29 12:10:30;;;;;;;2.70;2.20;;;;;;;;;;4213319;28;20061;-73
2022/07/29 12:12:31;;;;;;;2.15;1.95;;;;;;;;;;4214559;28;20085;-71
2022/07/29 12:14:32;;;;;;;2.53;1.92;;;;;;;;;;4213082;28;20027;-72
2022/07/29 12:16:39;;;;;;;3.72;2.10;;;;;;;;;;4213919;28;20032;-72
2022/07/29 12:18:40;;;;;;;2.08;1.98;;;;;;;;;;4212827;28;20074;-71
2022/07/29 12:20:41;;;;;;;1.73;1.63;;;;;;;;;;4225723;28;20143;-75
2022/07/29 12:22:44;;;;;;;2.10;1.90;;;;;;;;;;4232039;28;20049;-73
2022/07/29 12:24:44;;;;;;;2.40;2.03;;;;;;;;;;4232687;28;20039;-73